sensor_id;sensor_type;location;lat;lon;timestamp;pressure;altitude;pressure_sealevel;temperature;humidity
63343;BME280;49465;57.664;39.686;2023-01-23T00:01:28;102925.69;;;-1.59;58.02
63343;BME280;49465;57.664;39.686;2023-01-23T00:03:55;102931.34;;;-0.75;56.53
63343;BME280;49465;57.664;39.686;2023-01-23T00:06:25;102918.78;;;-0.62;55.81
63343;BME280;49465;57.664;39.686;2023-01-23T00:08:58;102915.66;;;-1.50;57.37
63343;BME280;49465;57.664;39.686;2023-01-23T00:11:27;102916.38;;;-1.55;57.70
63343;BME280;49465;57.664;39.686;2023-01-23T00:13:56;102915.28;;;-1.64;57.99
63343;BME280;49465;57.664;39.686;2023-01-23T00:16:29;102926.41;;;-1.65;58.00
63343;BME280;49465;57.664;39.686;2023-01-23T00:18:56;102921.19;;;-1.68;57.75
63343;BME280;49465;57.664;39.686;2023-01-23T00:21:25;102924.78;;;-1.63;57.83
63343;BME280;49465;57.664;39.686;2023-01-23T00:23:57;102917.81;;;-1.65;58.23
63343;BME280;49465;57.664;39.686;2023-01-23T00:26:27;102919.53;;;-1.66;57.73
63343;BME280;49465;57.664;39.686;2023-01-23T00:28:54;102917.69;;;-1.70;58.16
63343;BME280;49465;57.664;39.686;2023-01-23T00:31:23;102914.38;;;-1.66;58.39
63343;BME280;49465;57.664;39.686;2023-01-23T00:33:59;102918.38;;;-0.78;56.68
63343;BME280;49465;57.664;39.686;2023-01-23T00:36:34;102922.84;;;-1.38;57.68
63343;BME280;49465;57.664;39.686;2023-01-23T00:39:02;102922.00;;;-0.72;55.70
63343;BME280;49465;57.664;39.686;2023-01-23T00:41:35;102919.81;;;-1.55;57.24
63343;BME280;49465;57.664;39.686;2023-01-23T00:44:01;102920.38;;;-1.65;57.50
63343;BME280;49465;57.664;39.686;2023-01-23T00:46:30;102921.13;;;-1.69;57.55
63343;BME280;49465;57.664;39.686;2023-01-23T00:48:56;102930.38;;;-0.79;56.57
63343;BME280;49465;57.664;39.686;2023-01-23T00:51:25;102913.72;;;-1.58;57.16
63343;BME280;49465;57.664;39.686;2023-01-23T00:53:52;102922.91;;;-1.67;57.68
63343;BME280;49465;57.664;39.686;2023-01-23T00:56:19;102914.28;;;-1.69;58.03
63343;BME280;49465;57.664;39.686;2023-01-23T00:58:45;102924.56;;;-1.69;58.37
63343;BME280;49465;57.664;39.686;2023-01-23T01:01:12;102915.78;;;-0.80;56.57
63343;BME280;49465;57.664;39.686;2023-01-23T01:03:39;102926.59;;;-1.58;57.74
63343;BME280;49465;57.664;39.686;2023-01-23T01:06:05;102930.59;;;-1.68;57.55
63343;BME280;49465;57.664;39.686;2023-01-23T01:08:32;102928.78;;;-1.72;57.82
63343;BME280;49465;57.664;39.686;2023-01-23T01:10:59;102929.59;;;-1.73;57.82
63343;BME280;49465;57.664;39.686;2023-01-23T01:13:26;102932.16;;;-1.73;58.01
63343;BME280;49465;57.664;39.686;2023-01-23T01:15:54;102929.66;;;-1.72;57.97
63343;BME280;49465;57.664;39.686;2023-01-23T01:18:24;102931.34;;;-1.72;58.60
63343;BME280;49465;57.664;39.686;2023-01-23T01:20:51;102931.31;;;-1.74;58.03
63343;BME280;49465;57.664;39.686;2023-01-23T01:23:17;102944.88;;;-0.84;56.46
63343;BME280;49465;57.664;39.686;2023-01-23T01:25:44;102936.78;;;-1.62;58.02
63343;BME280;49465;57.664;39.686;2023-01-23T01:28:11;102930.56;;;-1.70;58.33
63343;BME280;49465;57.664;39.686;2023-01-23T01:30:38;102927.06;;;-1.72;58.45
63343;BME280;49465;57.664;39.686;2023-01-23T01:33:05;102933.69;;;-0.85;56.61
63343;BME280;49465;57.664;39.686;2023-01-23T01:35:32;102930.84;;;-1.61;57.45
63343;BME280;49465;57.664;39.686;2023-01-23T01:37:58;102931.47;;;-1.68;58.02
63343;BME280;49465;57.664;39.686;2023-01-23T01:40:28;102928.06;;;-1.67;58.10
63343;BME280;49465;57.664;39.686;2023-01-23T01:43:06;102931.53;;;-1.65;57.94
63343;BME280;49465;57.664;39.686;2023-01-23T01:48:25;102932.50;;;-1.63;58.38
63343;BME280;49465;57.664;39.686;2023-01-23T01:50:58;102930.25;;;-0.85;56.96
63343;BME280;49465;57.664;39.686;2023-01-23T01:53:29;102931.84;;;-1.54;58.00
63343;BME280;49465;57.664;39.686;2023-01-23T01:55:58;102929.72;;;-1.69;58.32
63343;BME280;49465;57.664;39.686;2023-01-23T01:58:27;102927.19;;;-1.67;58.23
63343;BME280;49465;57.664;39.686;2023-01-23T02:00:56;102923.59;;;-1.74;58.42
63343;BME280;49465;57.664;39.686;2023-01-23T02:03:23;102928.78;;;-1.72;58.40
63343;BME280;49465;57.664;39.686;2023-01-23T02:05:51;102922.50;;;-0.85;56.96
63343;BME280;49465;57.664;39.686;2023-01-23T02:08:33;102927.25;;;-0.67;55.73
63343;BME280;49465;57.664;39.686;2023-01-23T02:11:01;102920.53;;;-0.61;55.62
63343;BME280;49465;57.664;39.686;2023-01-23T02:13:32;102925.28;;;-1.44;57.52
63343;BME280;49465;57.664;39.686;2023-01-23T02:16:13;102919.53;;;-1.34;58.19
63343;BME280;49465;57.664;39.686;2023-01-23T02:18:43;102923.00;;;-1.64;58.59
63343;BME280;49465;57.664;39.686;2023-01-23T02:21:22;102923.63;;;-1.72;58.39
63343;BME280;49465;57.664;39.686;2023-01-23T02:24:10;102932.41;;;-1.34;58.61
63343;BME280;49465;57.664;39.686;2023-01-23T02:26:45;102927.16;;;-1.69;58.38
63343;BME280;49465;57.664;39.686;2023-01-23T02:29:15;102919.25;;;-1.75;58.44
63343;BME280;49465;57.664;39.686;2023-01-23T02:31:47;102923.06;;;-1.62;58.57
63343;BME280;49465;57.664;39.686;2023-01-23T02:34:17;102918.38;;;-1.75;58.67
63343;BME280;49465;57.664;39.686;2023-01-23T02:36:47;102917.69;;;-1.70;58.82
63343;BME280;49465;57.664;39.686;2023-01-23T02:39:19;102918.66;;;-1.66;58.95
63343;BME280;49465;57.664;39.686;2023-01-23T02:41:49;102920.28;;;-1.70;58.89
63343;BME280;49465;57.664;39.686;2023-01-23T02:44:25;102914.75;;;-1.52;59.20
63343;BME280;49465;57.664;39.686;2023-01-23T02:46:58;102906.72;;;-1.64;59.43
63343;BME280;49465;57.664;39.686;2023-01-23T02:49:34;102911.81;;;-1.66;58.99
63343;BME280;49465;57.664;39.686;2023-01-23T02:52:00;102910.63;;;-1.77;58.57
63343;BME280;49465;57.664;39.686;2023-01-23T02:54:28;102915.69;;;-1.80;58.80
63343;BME280;49465;57.664;39.686;2023-01-23T02:56:57;102912.28;;;-1.79;59.12
63343;BME280;49465;57.664;39.686;2023-01-23T02:59:24;102913.94;;;-1.81;58.98
63343;BME280;49465;57.664;39.686;2023-01-23T03:02:09;102919.88;;;-0.87;57.31
63343;BME280;49465;57.664;39.686;2023-01-23T03:04:37;102918.56;;;-1.69;58.30
63343;BME280;49465;57.664;39.686;2023-01-23T03:07:03;102918.28;;;-1.79;58.63
63343;BME280;49465;57.664;39.686;2023-01-23T03:09:29;102922.56;;;-1.79;59.01
63343;BME280;49465;57.664;39.686;2023-01-23T03:11:56;102918.16;;;-1.83;59.23
63343;BME280;49465;57.664;39.686;2023-01-23T03:14:23;102920.91;;;-1.77;59.05
63343;BME280;49465;57.664;39.686;2023-01-23T03:16:50;102913.06;;;-1.82;58.99
63343;BME280;49465;57.664;39.686;2023-01-23T03:19:23;102929.91;;;-1.63;59.61
63343;BME280;49465;57.664;39.686;2023-01-23T03:21:50;102922.41;;;-0.88;57.74
63343;BME280;49465;57.664;39.686;2023-01-23T03:24:18;102925.38;;;-0.73;56.37
63343;BME280;49465;57.664;39.686;2023-01-23T03:26:48;102919.69;;;-1.60;57.93
63343;BME280;49465;57.664;39.686;2023-01-23T03:29:18;102923.72;;;-1.69;58.68
63343;BME280;49465;57.664;39.686;2023-01-23T03:32:03;102925.28;;;-1.74;59.10
63343;BME280;49465;57.664;39.686;2023-01-23T03:34:30;102926.91;;;-1.78;59.41
63343;BME280;49465;57.664;39.686;2023-01-23T03:36:57;102922.63;;;-1.77;59.28
63343;BME280;49465;57.664;39.686;2023-01-23T03:39:24;102919.94;;;-1.82;58.86
63343;BME280;49465;57.664;39.686;2023-01-23T03:42:10;102922.56;;;-1.79;59.42
63343;BME280;49465;57.664;39.686;2023-01-23T03:44:36;102925.06;;;-1.82;59.58
63343;BME280;49465;57.664;39.686;2023-01-23T03:47:03;102930.22;;;-1.82;59.39
63343;BME280;49465;57.664;39.686;2023-01-23T03:49:32;102930.28;;;-1.79;58.64
63343;BME280;49465;57.664;39.686;2023-01-23T03:52:07;102935.28;;;-0.90;57.61
63343;BME280;49465;57.664;39.686;2023-01-23T03:54:34;102934.09;;;-1.66;58.85
63343;BME280;49465;57.664;39.686;2023-01-23T03:57:04;102934.69;;;-1.75;58.94
63343;BME280;49465;57.664;39.686;2023-01-23T03:59:30;102932.03;;;-1.78;58.79
63343;BME280;49465;57.664;39.686;2023-01-23T04:01:56;102931.00;;;-0.89;57.63
63343;BME280;49465;57.664;39.686;2023-01-23T04:04:25;102924.56;;;-1.69;58.18
63343;BME280;49465;57.664;39.686;2023-01-23T04:06:52;102926.91;;;-1.76;59.09
63343;BME280;49465;57.664;39.686;2023-01-23T04:09:18;102924.22;;;-1.81;58.60
63343;BME280;49465;57.664;39.686;2023-01-23T04:11:53;102926.91;;;-1.76;58.95
63343;BME280;49465;57.664;39.686;2023-01-23T04:14:24;102928.63;;;-1.77;58.82
63343;BME280;49465;57.664;39.686;2023-01-23T04:16:55;102931.13;;;-1.80;58.89
63343;BME280;49465;57.664;39.686;2023-01-23T04:19:21;102925.88;;;-1.83;59.22
63343;BME280;49465;57.664;39.686;2023-01-23T04:21:50;102939.53;;;-0.92;57.29
63343;BME280;49465;57.664;39.686;2023-01-23T04:24:17;102945.97;;;-0.74;56.80
63343;BME280;49465;57.664;39.686;2023-01-23T04:26:43;102946.13;;;-1.65;58.50
63343;BME280;49465;57.664;39.686;2023-01-23T04:29:12;102952.69;;;-1.75;58.96
63343;BME280;49465;57.664;39.686;2023-01-23T04:31:44;102960.69;;;-1.66;59.49
63343;BME280;49465;57.664;39.686;2023-01-23T04:34:11;102959.28;;;-0.91;57.94
63343;BME280;49465;57.664;39.686;2023-01-23T04:36:40;102956.34;;;-1.68;58.68
63343;BME280;49465;57.664;39.686;2023-01-23T04:39:06;102958.69;;;-1.76;58.85
63343;BME280;49465;57.664;39.686;2023-01-23T04:41:36;102958.59;;;-1.79;58.72
63343;BME280;49465;57.664;39.686;2023-01-23T04:44:02;102961.94;;;-1.82;59.05
63343;BME280;49465;57.664;39.686;2023-01-23T04:46:49;102958.63;;;-1.77;59.25
63343;BME280;49465;57.664;39.686;2023-01-23T04:49:16;102960.16;;;-0.90;57.42
63343;BME280;49465;57.664;39.686;2023-01-23T04:51:44;102964.03;;;-0.73;56.52
63343;BME280;49465;57.664;39.686;2023-01-23T04:54:11;102965.91;;;-0.67;56.30
63343;BME280;49465;57.664;39.686;2023-01-23T04:56:37;102960.81;;;-0.64;56.20
63343;BME280;49465;57.664;39.686;2023-01-23T04:59:03;102960.88;;;-1.60;58.22
63343;BME280;49465;57.664;39.686;2023-01-23T05:01:33;102962.16;;;-1.74;58.40
63343;BME280;49465;57.664;39.686;2023-01-23T05:03:59;102967.16;;;-1.79;59.10
63343;BME280;49465;57.664;39.686;2023-01-23T05:06:26;102976.53;;;-1.81;58.93
63343;BME280;49465;57.664;39.686;2023-01-23T05:08:52;102975.66;;;-1.81;59.29
63343;BME280;49465;57.664;39.686;2023-01-23T05:11:19;102973.03;;;-1.83;59.00
63343;BME280;49465;57.664;39.686;2023-01-23T05:13:45;102973.94;;;-1.82;59.30
63343;BME280;49465;57.664;39.686;2023-01-23T05:16:17;102973.94;;;-1.82;59.48
63343;BME280;49465;57.664;39.686;2023-01-23T05:18:46;102973.94;;;-1.82;59.51
63343;BME280;49465;57.664;39.686;2023-01-23T05:21:12;102981.66;;;-1.82;59.63
63343;BME280;49465;57.664;39.686;2023-01-23T05:23:41;102979.91;;;-1.83;59.30
63343;BME280;49465;57.664;39.686;2023-01-23T05:26:07;102980.75;;;-1.84;59.41
63343;BME280;49465;57.664;39.686;2023-01-23T05:28:33;102981.56;;;-1.85;59.64
63343;BME280;49465;57.664;39.686;2023-01-23T05:31:00;102988.47;;;-1.84;59.41
63343;BME280;49465;57.664;39.686;2023-01-23T05:33:26;102991.91;;;-1.84;59.28
63343;BME280;49465;57.664;39.686;2023-01-23T05:35:57;102991.03;;;-1.84;59.37
63343;BME280;49465;57.664;39.686;2023-01-23T05:38:26;102991.91;;;-1.84;59.20
63343;BME280;49465;57.664;39.686;2023-01-23T05:40:52;102997.91;;;-1.83;59.74
63343;BME280;49465;57.664;39.686;2023-01-23T05:43:33;102998.19;;;-1.74;60.24
63343;BME280;49465;57.664;39.686;2023-01-23T05:46:00;102999.69;;;-1.81;59.36
63343;BME280;49465;57.664;39.686;2023-01-23T05:48:32;102999.66;;;-1.82;59.32
63343;BME280;49465;57.664;39.686;2023-01-23T05:53:52;103009.22;;;-1.78;58.99
63343;BME280;49465;57.664;39.686;2023-01-23T05:56:22;103019.44;;;-0.89;57.11
63343;BME280;49465;57.664;39.686;2023-01-23T05:58:51;103014.63;;;-1.69;58.70
63343;BME280;49465;57.664;39.686;2023-01-23T06:01:28;103019.53;;;-1.76;59.41
63343;BME280;49465;57.664;39.686;2023-01-23T06:03:55;103013.44;;;-1.80;59.71
63343;BME280;49465;57.664;39.686;2023-01-23T06:06:21;103017.66;;;-1.82;59.74
63343;BME280;49465;57.664;39.686;2023-01-23T06:08:50;103021.97;;;-1.81;59.67
63343;BME280;49465;57.664;39.686;2023-01-23T06:11:18;103022.84;;;-1.81;59.24
63343;BME280;49465;57.664;39.686;2023-01-23T06:13:45;103014.25;;;-1.81;59.76
63343;BME280;49465;57.664;39.686;2023-01-23T06:16:11;103015.09;;;-1.82;59.79
63343;BME280;49465;57.664;39.686;2023-01-23T06:18:37;103015.91;;;-1.83;59.57
63343;BME280;49465;57.664;39.686;2023-01-23T06:21:04;103025.38;;;-1.82;59.88
63343;BME280;49465;57.664;39.686;2023-01-23T06:23:32;103013.34;;;-1.83;59.49
63343;BME280;49465;57.664;39.686;2023-01-23T06:26:00;103016.81;;;-1.81;60.06
63343;BME280;49465;57.664;39.686;2023-01-23T06:28:32;103020.59;;;-1.70;60.21
63343;BME280;49465;57.664;39.686;2023-01-23T06:31:02;103030.16;;;-1.66;60.21
63343;BME280;49465;57.664;39.686;2023-01-23T06:33:34;103027.28;;;-0.86;58.01
63343;BME280;49465;57.664;39.686;2023-01-23T06:36:07;103028.59;;;-0.68;57.26
63343;BME280;49465;57.664;39.686;2023-01-23T06:38:36;103021.75;;;-1.60;58.49
63343;BME280;49465;57.664;39.686;2023-01-23T06:41:06;103020.91;;;-1.59;59.38
63343;BME280;49465;57.664;39.686;2023-01-23T06:43:38;103032.03;;;-1.60;59.75
63343;BME280;49465;57.664;39.686;2023-01-23T06:46:06;103026.53;;;-1.72;59.77
63343;BME280;49465;57.664;39.686;2023-01-23T06:48:32;103029.03;;;-0.83;58.08
63343;BME280;49465;57.664;39.686;2023-01-23T06:51:00;103032.88;;;-0.67;57.35
63343;BME280;49465;57.664;39.686;2023-01-23T06:53:26;103031.25;;;-1.57;58.52
63343;BME280;49465;57.664;39.686;2023-01-23T06:56:03;103031.41;;;-1.53;59.60
63343;BME280;49465;57.664;39.686;2023-01-23T06:58:31;103030.03;;;-1.70;59.33
63343;BME280;49465;57.664;39.686;2023-01-23T07:00:57;103030.78;;;-1.73;59.95
63343;BME280;49465;57.664;39.686;2023-01-23T07:03:27;103033.34;;;-1.73;59.96
63343;BME280;49465;57.664;39.686;2023-01-23T07:05:56;103035.06;;;-1.73;59.80
63343;BME280;49465;57.664;39.686;2023-01-23T07:08:23;103035.91;;;-1.74;59.91
63343;BME280;49465;57.664;39.686;2023-01-23T07:10:49;103039.41;;;-1.71;60.08
63343;BME280;49465;57.664;39.686;2023-01-23T07:13:18;103036.84;;;-1.71;59.85
63343;BME280;49465;57.664;39.686;2023-01-23T07:15:50;103027.47;;;-1.69;60.06
63343;BME280;49465;57.664;39.686;2023-01-23T07:18:16;103032.69;;;-1.67;59.69
63343;BME280;49465;57.664;39.686;2023-01-23T07:20:46;103040.81;;;-1.53;60.10
63343;BME280;49465;57.664;39.686;2023-01-23T07:23:16;103038.66;;;-0.77;58.47
63343;BME280;49465;57.664;39.686;2023-01-23T07:25:45;103033.09;;;-1.53;59.31
63343;BME280;49465;57.664;39.686;2023-01-23T07:28:14;103035.47;;;-1.60;59.58
63343;BME280;49465;57.664;39.686;2023-01-23T07:30:45;103025.97;;;-1.62;60.17
63343;BME280;49465;57.664;39.686;2023-01-23T07:33:16;103027.75;;;-1.60;60.11
63343;BME280;49465;57.664;39.686;2023-01-23T07:35:43;103027.69;;;-1.63;59.84
63343;BME280;49465;57.664;39.686;2023-01-23T07:38:09;103029.47;;;-1.60;60.12
63343;BME280;49465;57.664;39.686;2023-01-23T07:40:36;103032.09;;;-1.58;60.02
63343;BME280;49465;57.664;39.686;2023-01-23T07:43:07;103036.44;;;-1.56;59.96
63343;BME280;49465;57.664;39.686;2023-01-23T07:45:34;103041.59;;;-1.56;60.46
63343;BME280;49465;57.664;39.686;2023-01-23T07:48:03;103047.53;;;-0.66;58.10
63343;BME280;49465;57.664;39.686;2023-01-23T07:50:33;103043.84;;;-1.38;58.98
63343;BME280;49465;57.664;39.686;2023-01-23T07:53:04;103048.69;;;-1.47;59.41
63343;BME280;49465;57.664;39.686;2023-01-23T07:55:39;103056.25;;;-1.25;59.71
63343;BME280;49465;57.664;39.686;2023-01-23T07:58:09;103045.31;;;-1.46;59.60
63343;BME280;49465;57.664;39.686;2023-01-23T08:00:38;103042.75;;;-1.46;59.69
63343;BME280;49465;57.664;39.686;2023-01-23T08:03:06;103038.47;;;-1.46;60.26
63343;BME280;49465;57.664;39.686;2023-01-23T08:05:33;103044.53;;;-1.44;59.55
63343;BME280;49465;57.664;39.686;2023-01-23T08:07:59;103043.75;;;-1.41;59.58
63343;BME280;49465;57.664;39.686;2023-01-23T08:10:25;103042.91;;;-1.40;60.10
63343;BME280;49465;57.664;39.686;2023-01-23T08:12:54;103043.78;;;-1.40;59.82
63343;BME280;49465;57.664;39.686;2023-01-23T08:15:25;103036.16;;;-1.36;59.86
63343;BME280;49465;57.664;39.686;2023-01-23T08:17:53;103038.09;;;-1.29;60.19
63343;BME280;49465;57.664;39.686;2023-01-23T08:20:19;103032.78;;;-1.34;60.02
63343;BME280;49465;57.664;39.686;2023-01-23T08:22:51;103030.59;;;-1.20;59.82
63343;BME280;49465;57.664;39.686;2023-01-23T08:25:17;103033.81;;;-1.29;59.79
63343;BME280;49465;57.664;39.686;2023-01-23T08:27:46;103023.50;;;-1.29;59.58
63343;BME280;49465;57.664;39.686;2023-01-23T08:30:15;103029.53;;;-1.28;59.53
63343;BME280;49465;57.664;39.686;2023-01-23T08:32:41;103022.72;;;-1.26;60.03
63343;BME280;49465;57.664;39.686;2023-01-23T08:35:11;103027.00;;;-1.27;59.95
63343;BME280;49465;57.664;39.686;2023-01-23T08:37:38;103025.41;;;-1.23;60.09
63343;BME280;49465;57.664;39.686;2023-01-23T08:40:07;103026.31;;;-1.21;60.05
63343;BME280;49465;57.664;39.686;2023-01-23T08:42:33;103035.81;;;-1.18;59.60
63343;BME280;49465;57.664;39.686;2023-01-23T08:45:00;103034.09;;;-1.18;59.51
63343;BME280;49465;57.664;39.686;2023-01-23T08:47:26;103036.69;;;-1.18;59.96
63343;BME280;49465;57.664;39.686;2023-01-23T08:49:52;103037.59;;;-1.16;59.80
63343;BME280;49465;57.664;39.686;2023-01-23T08:52:19;103037.63;;;-1.14;59.66
63343;BME280;49465;57.664;39.686;2023-01-23T08:54:45;103037.69;;;-1.13;59.48
63343;BME280;49465;57.664;39.686;2023-01-23T08:57:11;103041.19;;;-1.11;59.43
63343;BME280;49465;57.664;39.686;2023-01-23T08:59:41;103043.81;;;-1.09;59.30
63343;BME280;49465;57.664;39.686;2023-01-23T09:02:13;103049.19;;;-1.00;59.66
63343;BME280;49465;57.664;39.686;2023-01-23T09:04:40;103042.19;;;-1.06;59.51
63343;BME280;49465;57.664;39.686;2023-01-23T09:07:06;103035.28;;;-1.07;59.70
63343;BME280;49465;57.664;39.686;2023-01-23T09:09:40;103042.50;;;-0.93;59.57
63343;BME280;49465;57.664;39.686;2023-01-23T09:12:06;103035.38;;;-1.02;59.32
63343;BME280;49465;57.664;39.686;2023-01-23T09:14:33;103044.94;;;-1.00;59.64
63343;BME280;49465;57.664;39.686;2023-01-23T09:17:02;103045.19;;;-0.89;59.84
63343;BME280;49465;57.664;39.686;2023-01-23T09:19:34;103041.22;;;-0.77;60.14
63343;BME280;49465;57.664;39.686;2023-01-23T09:22:05;103041.88;;;-0.85;59.78
63343;BME280;49465;57.664;39.686;2023-01-23T09:24:34;103045.97;;;-0.93;59.64
63343;BME280;49465;57.664;39.686;2023-01-23T09:27:03;103054.59;;;-0.91;59.63
63343;BME280;49465;57.664;39.686;2023-01-23T09:29:30;103055.16;;;-0.01;57.84
63343;BME280;49465;57.664;39.686;2023-01-23T09:32:05;103055.34;;;-0.63;59.18
63343;BME280;49465;57.664;39.686;2023-01-23T09:34:37;103052.56;;;-0.71;59.20
63343;BME280;49465;57.664;39.686;2023-01-23T09:37:06;103047.94;;;-0.83;59.33
63343;BME280;49465;57.664;39.686;2023-01-23T09:39:32;103052.19;;;-0.85;58.93
63343;BME280;49465;57.664;39.686;2023-01-23T09:42:08;103052.59;;;-0.69;59.37
63343;BME280;49465;57.664;39.686;2023-01-23T09:44:49;103051.63;;;-0.73;58.98
63343;BME280;49465;57.664;39.686;2023-01-23T09:50:28;103047.13;;;-0.48;59.12
63343;BME280;49465;57.664;39.686;2023-01-23T09:53:18;103043.38;;;-0.26;59.20
63343;BME280;49465;57.664;39.686;2023-01-23T10:02:02;103032.13;;;-0.63;58.89
63343;BME280;49465;57.664;39.686;2023-01-23T10:04:31;103034.84;;;-0.58;58.85
63343;BME280;49465;57.664;39.686;2023-01-23T10:12:36;103024.47;;;-0.27;59.01
63343;BME280;49465;57.664;39.686;2023-01-23T10:15:43;103029.22;;;-0.07;58.62
63343;BME280;49465;57.664;39.686;2023-01-23T10:18:48;103030.09;;;-0.07;58.43
63343;BME280;49465;57.664;39.686;2023-01-23T10:27:31;103016.06;;;-0.18;58.85
63343;BME280;49465;57.664;39.686;2023-01-23T10:30:30;103004.34;;;-0.05;58.28
63343;BME280;49465;57.664;39.686;2023-01-23T10:33:28;103007.13;;;0.44;56.67
63343;BME280;49465;57.664;39.686;2023-01-23T10:36:02;103010.00;;;-0.20;57.95
63343;BME280;49465;57.664;39.686;2023-01-23T10:41:28;103002.97;;;-0.26;58.09
63343;BME280;49465;57.664;39.686;2023-01-23T10:43:55;103006.09;;;-0.41;58.60
63343;BME280;49465;57.664;39.686;2023-01-23T10:46:33;102997.75;;;0.49;57.02
63343;BME280;49465;57.664;39.686;2023-01-23T10:49:10;102993.16;;;-0.04;58.22
63343;BME280;49465;57.664;39.686;2023-01-23T10:51:46;102993.44;;;-0.30;57.96
63343;BME280;49465;57.664;39.686;2023-01-23T10:54:20;102995.56;;;-0.12;58.55
63343;BME280;49465;57.664;39.686;2023-01-23T10:56:57;103002.16;;;-0.25;58.25
63343;BME280;49465;57.664;39.686;2023-01-23T11:04:40;102987.41;;;-0.30;57.93
63343;BME280;49465;57.664;39.686;2023-01-23T11:09:46;102984.44;;;-0.11;58.36
63343;BME280;49465;57.664;39.686;2023-01-23T11:12:15;102992.00;;;0.62;56.75
63343;BME280;49465;57.664;39.686;2023-01-23T11:17:41;103000.09;;;-0.03;57.94
63343;BME280;49465;57.664;39.686;2023-01-23T11:20:31;102996.88;;;0.07;58.00
63343;BME280;49465;57.664;39.686;2023-01-23T11:25:38;103001.44;;;-0.19;58.05
63343;BME280;49465;57.664;39.686;2023-01-23T11:31:19;103002.41;;;0.24;57.95
63343;BME280;49465;57.664;39.686;2023-01-23T11:42:12;102985.97;;;-0.19;57.08
63343;BME280;49465;57.664;39.686;2023-01-23T11:44:39;102985.88;;;-0.22;57.20
63343;BME280;49465;57.664;39.686;2023-01-23T11:47:25;102990.88;;;0.08;57.33
63343;BME280;49465;57.664;39.686;2023-01-23T11:50:38;102990.66;;;0.38;57.12
63343;BME280;49465;57.664;39.686;2023-01-23T11:53:33;103002.53;;;0.30;56.79
63343;BME280;49465;57.664;39.686;2023-01-23T11:58:50;102976.56;;;-0.17;56.91
63343;BME280;49465;57.664;39.686;2023-01-23T12:07:19;102979.13;;;-0.17;57.12
63343;BME280;49465;57.664;39.686;2023-01-23T12:10:02;102982.53;;;0.22;56.83
63343;BME280;49465;57.664;39.686;2023-01-23T12:12:45;102974.03;;;-0.14;57.10
63343;BME280;49465;57.664;39.686;2023-01-23T12:18:00;102970.53;;;-0.17;57.11
63343;BME280;49465;57.664;39.686;2023-01-23T12:26:20;102988.78;;;0.30;56.98
63343;BME280;49465;57.664;39.686;2023-01-23T12:32:29;102991.88;;;0.15;56.51
63343;BME280;49465;57.664;39.686;2023-01-23T12:43:49;102975.13;;;0.37;56.30
63343;BME280;49465;57.664;39.686;2023-01-23T12:46:25;102976.91;;;-0.02;56.70
63343;BME280;49465;57.664;39.686;2023-01-23T12:49:26;102980.81;;;0.21;56.91
63343;BME280;49465;57.664;39.686;2023-01-23T12:52:18;102979.19;;;0.24;56.87
63343;BME280;49465;57.664;39.686;2023-01-23T12:55:18;102969.88;;;0.32;56.81
63343;BME280;49465;57.664;39.686;2023-01-23T12:57:48;102974.06;;;-0.12;56.59
63343;BME280;49465;57.664;39.686;2023-01-23T13:00:45;102968.91;;;0.27;56.45
63343;BME280;49465;57.664;39.686;2023-01-23T13:17:14;102965.25;;;-0.22;55.96
63343;BME280;49465;57.664;39.686;2023-01-23T13:19:54;102950.63;;;-0.23;56.17
63343;BME280;49465;57.664;39.686;2023-01-23T13:22:51;102951.53;;;-0.21;56.13
63343;BME280;49465;57.664;39.686;2023-01-23T13:25:26;102953.34;;;-0.17;56.05
63343;BME280;49465;57.664;39.686;2023-01-23T13:27:58;102959.41;;;-0.15;56.28
63343;BME280;49465;57.664;39.686;2023-01-23T13:31:02;102953.06;;;0.09;55.76
63343;BME280;49465;57.664;39.686;2023-01-23T13:36:27;102948.88;;;0.15;55.83
63343;BME280;49465;57.664;39.686;2023-01-23T13:42:37;102951.66;;;-0.15;55.74
63343;BME280;49465;57.664;39.686;2023-01-23T13:47:31;102958.00;;;-0.01;55.38
63343;BME280;49465;57.664;39.686;2023-01-23T13:50:39;102949.59;;;0.08;55.81
63343;BME280;49465;57.664;39.686;2023-01-23T13:53:25;102954.78;;;0.10;56.09
63343;BME280;49465;57.664;39.686;2023-01-23T13:56:18;102950.16;;;-0.05;56.08
63343;BME280;49465;57.664;39.686;2023-01-23T13:59:16;102958.38;;;-0.23;56.15
63343;BME280;49465;57.664;39.686;2023-01-23T14:01:53;102948.19;;;-0.17;56.71
63343;BME280;49465;57.664;39.686;2023-01-23T14:04:43;102952.31;;;-0.25;56.46
63343;BME280;49465;57.664;39.686;2023-01-23T14:07:32;102948.16;;;-0.18;56.72
63343;BME280;49465;57.664;39.686;2023-01-23T14:10:23;102946.72;;;-0.04;56.63
63343;BME280;49465;57.664;39.686;2023-01-23T14:13:10;102946.81;;;-0.01;56.61
63343;BME280;49465;57.664;39.686;2023-01-23T14:15:47;102949.25;;;-0.07;56.51
63343;BME280;49465;57.664;39.686;2023-01-23T14:18:46;102942.34;;;-0.10;56.38
63343;BME280;49465;57.664;39.686;2023-01-23T14:21:16;102926.94;;;-0.45;56.29
63343;BME280;49465;57.664;39.686;2023-01-23T14:23:54;102930.66;;;-0.32;56.52
63343;BME280;49465;57.664;39.686;2023-01-23T14:26:25;102933.19;;;-0.33;56.60
63343;BME280;49465;57.664;39.686;2023-01-23T14:29:02;102929.97;;;-0.25;57.02
63343;BME280;49465;57.664;39.686;2023-01-23T14:31:34;102929.88;;;-0.28;57.23
63343;BME280;49465;57.664;39.686;2023-01-23T14:34:11;102927.25;;;-0.31;57.07
63343;BME280;49465;57.664;39.686;2023-01-23T14:37:16;102928.94;;;0.07;56.40
63343;BME280;49465;57.664;39.686;2023-01-23T14:39:45;102926.25;;;-0.36;57.07
63343;BME280;49465;57.664;39.686;2023-01-23T14:42:25;102929.19;;;-0.21;57.21
63343;BME280;49465;57.664;39.686;2023-01-23T14:44:56;102925.13;;;-0.49;56.74
63343;BME280;49465;57.664;39.686;2023-01-23T14:47:35;102922.78;;;-0.38;56.95
63343;BME280;49465;57.664;39.686;2023-01-23T14:50:10;102920.28;;;-0.33;57.41
63343;BME280;49465;57.664;39.686;2023-01-23T14:52:43;102922.69;;;-0.43;57.59